Chippewa Valley Regional Airport Eau Claire US
ICAO: KEAU
IATA: EAU
Category: Medium
Scheduled Services: Yes

Elevation: 913 ft
TransAlt. 18000 ft.

Airport Communications:
MINNEAPOLIS APP/DEP:125.3
ASOS:119.675
GREEN BAY RDO:122.65
CTAF/UNICOM:123

KEAU Zoom In..

If you have problems with the map follow the link
https://www.worldairports.se/pages/airport.php?
ICAO=KEAU

Runways:

(A) RW 04 length 8101 ft width 150 ft
---- / hdg 44

(B) RW 14 length 5000 ft width 100 ft
---- / hdg 138

(C) RW 22 length 8101 ft width 150 ft
ILS 109.50 / hdg 224

(D) RW 32 length 5000 ft width 100 ft
---- / hdg 318

Location; KEAU
Day. 08 / Time. 17.56 Zulu
* Altimeter: 29.75
* Temperature: 03° c. 37.4°f.
* Wind from: 330° Speed 06 kn.
Dewpoint: -02° c.
Visibility: 8 Statute Miles.
Clouds: Overcast 1500 ft.

KEAU 081756Z 33006KT 8SM OVC015 03/M02 A2975 RMK AO2 SLP081 T00281017 10033 20006 50003 $


Wind From 330°
Speed 06 kn.

 
 
jpsmedia worldairports.se 2019   terms of use